createdAt,value
2019-05-22T00:00:44.230Z,15.50
2019-05-22T00:03:24.118Z,15.47
2019-05-22T00:05:55.979Z,15.46
2019-05-22T00:08:26.298Z,15.41
2019-05-22T00:10:57.398Z,15.30
2019-05-22T00:13:34.757Z,15.24
2019-05-22T00:16:04.226Z,15.24
2019-05-22T00:18:33.673Z,15.30
2019-05-22T00:21:04.592Z,15.25
2019-05-22T00:23:34.569Z,15.25
2019-05-22T00:26:04.021Z,15.28
2019-05-22T00:28:33.515Z,15.27
2019-05-22T00:31:02.977Z,15.27
2019-05-22T00:33:36.100Z,15.26
2019-05-22T00:36:04.499Z,15.25
2019-05-22T00:38:34.152Z,15.23
2019-05-22T00:41:11.914Z,15.16
2019-05-22T00:43:44.585Z,15.18
2019-05-22T00:46:16.195Z,15.17
2019-05-22T00:48:47.917Z,15.17
2019-05-22T00:51:31.407Z,15.17
2019-05-22T00:54:03.593Z,15.08
2019-05-22T00:56:34.736Z,15.12
2019-05-22T00:59:07.541Z,15.14
2019-05-22T01:01:46.093Z,15.07
2019-05-22T01:04:17.866Z,15.05
2019-05-22T01:06:48.633Z,15.06
2019-05-22T01:09:19.924Z,15.00
2019-05-22T01:11:51.701Z,15.00
2019-05-22T01:14:23.765Z,15.09
2019-05-22T01:16:53.511Z,15.12
2019-05-22T01:19:24.156Z,15.11
2019-05-22T01:21:55.416Z,15.19
2019-05-22T01:24:25.332Z,15.19
2019-05-22T01:26:56.868Z,15.17
2019-05-22T01:29:26.435Z,15.14
2019-05-22T01:32:03.867Z,15.19
2019-05-22T01:34:35.587Z,15.18
2019-05-22T01:37:07.474Z,15.12
2019-05-22T01:39:47.915Z,15.06
2019-05-22T01:42:21.332Z,15.04
2019-05-22T01:45:04.602Z,15.00
2019-05-22T01:47:38.794Z,15.00
2019-05-22T01:50:10.341Z,15.03
2019-05-22T01:52:40.571Z,15.00
2019-05-22T01:55:12.006Z,14.98
2019-05-22T01:57:41.949Z,14.83
2019-05-22T02:00:13.560Z,14.83
2019-05-22T02:02:43.978Z,14.75
2019-05-22T02:05:14.680Z,14.78
2019-05-22T02:07:46.258Z,14.82
2019-05-22T02:10:20.930Z,14.82
2019-05-22T02:12:54.832Z,14.75
2019-05-22T02:15:25.058Z,14.73
2019-05-22T02:17:56.569Z,14.65
2019-05-22T02:20:27.002Z,14.64
2019-05-22T02:22:57.542Z,14.60
2019-05-22T02:25:29.337Z,14.55
2019-05-22T02:27:59.003Z,14.49
2019-05-22T02:30:30.076Z,14.43
2019-05-22T02:33:01.245Z,14.43
2019-05-22T02:35:30.942Z,14.48
2019-05-22T02:38:01.262Z,14.54
2019-05-22T02:40:34.016Z,14.55
2019-05-22T02:43:03.905Z,14.55
2019-05-22T02:45:34.045Z,14.56
2019-05-22T02:48:06.112Z,14.56
2019-05-22T02:50:37.679Z,14.70
2019-05-22T02:53:09.844Z,14.63
2019-05-22T02:55:40.405Z,14.65
2019-05-22T02:58:11.100Z,14.67
2019-05-22T03:00:55.981Z,14.66
2019-05-22T03:03:26.871Z,14.64
2019-05-22T03:05:56.348Z,14.59
2019-05-22T03:08:29.440Z,14.51
2019-05-22T03:10:59.264Z,14.54
2019-05-22T03:13:42.191Z,14.55
2019-05-22T03:16:12.506Z,14.52
2019-05-22T03:18:44.309Z,14.52
2019-05-22T03:21:13.835Z,14.59
2019-05-22T03:23:43.634Z,14.62
2019-05-22T03:26:14.854Z,14.62
2019-05-22T03:28:45.902Z,14.47
2019-05-22T03:31:16.307Z,14.44
2019-05-22T03:33:47.312Z,14.42
2019-05-22T03:36:18.859Z,14.46
2019-05-22T03:38:48.730Z,14.51
2019-05-22T03:41:18.779Z,14.34
2019-05-22T03:43:50.848Z,14.34
2019-05-22T03:46:24.439Z,14.34
2019-05-22T03:48:54.266Z,14.31
2019-05-22T03:51:25.600Z,14.34
2019-05-22T03:53:55.067Z,14.38
2019-05-22T03:56:24.879Z,14.39
2019-05-22T03:58:55.343Z,14.27
2019-05-22T04:01:26.123Z,14.30
2019-05-22T04:03:56.741Z,14.24
2019-05-22T04:06:27.548Z,14.21
2019-05-22T04:09:00.388Z,14.22
2019-05-22T04:11:33.329Z,14.16
2019-05-22T04:14:03.050Z,13.98
2019-05-22T04:16:33.386Z,13.98
2019-05-22T04:19:05.115Z,14.01
2019-05-22T04:21:35.434Z,13.96
2019-05-22T04:24:05.006Z,13.92
2019-05-22T04:26:35.021Z,13.88
2019-05-22T04:29:05.231Z,13.81
2019-05-22T04:31:51.237Z,13.78
2019-05-22T04:34:20.881Z,13.71
2019-05-22T04:36:50.392Z,13.63
2019-05-22T04:39:22.368Z,13.67
2019-05-22T04:41:52.697Z,13.54
2019-05-22T04:44:22.347Z,13.51
2019-05-22T04:46:52.142Z,13.48
2019-05-22T04:49:21.672Z,13.53
2019-05-22T04:51:51.124Z,13.52
2019-05-22T04:54:20.595Z,13.51
2019-05-22T04:56:51.504Z,13.46
2019-05-22T04:59:21.225Z,13.44
2019-05-22T05:01:50.949Z,13.51
2019-05-22T05:04:21.044Z,13.55
2019-05-22T05:06:51.053Z,13.58
2019-05-22T05:09:20.595Z,13.64
2019-05-22T05:11:50.540Z,13.60
2019-05-22T05:14:20.006Z,13.54
2019-05-22T05:16:49.470Z,13.52
2019-05-22T05:19:19.109Z,13.52
2019-05-22T05:21:48.601Z,13.57
2019-05-22T05:24:18.169Z,13.48
2019-05-22T05:26:47.848Z,13.40
2019-05-22T05:29:28.567Z,13.36
2019-05-22T05:31:58.960Z,13.32
2019-05-22T05:34:31.609Z,13.32
2019-05-22T05:37:02.244Z,13.29
2019-05-22T05:39:37.695Z,13.20
2019-05-22T05:42:07.157Z,13.21
2019-05-22T05:44:36.994Z,13.23
2019-05-22T05:47:07.044Z,13.15
2019-05-22T05:49:36.570Z,13.10
2019-05-22T05:52:07.069Z,13.13
2019-05-22T05:54:37.704Z,13.15
2019-05-22T05:57:34.788Z,13.15
2019-05-22T06:00:08.036Z,13.14
2019-05-22T06:02:37.483Z,13.19
2019-05-22T06:05:08.453Z,13.17
2019-05-22T06:07:38.442Z,13.17
2019-05-22T06:10:25.739Z,13.13
2019-05-22T06:12:55.816Z,13.15
2019-05-22T06:15:46.925Z,13.08
2019-05-22T06:18:26.620Z,13.14
2019-05-22T06:21:03.949Z,13.08
2019-05-22T06:23:39.836Z,13.10
2019-05-22T06:26:09.855Z,13.06
2019-05-22T06:28:39.689Z,13.02
2019-05-22T06:31:15.217Z,13.13
2019-05-22T06:33:44.957Z,13.07
2019-05-22T06:36:17.023Z,13.09
2019-05-22T06:38:52.464Z,13.07
2019-05-22T06:41:24.122Z,13.05
2019-05-22T06:44:19.520Z,13.03
2019-05-22T06:46:49.043Z,12.99
2019-05-22T06:49:36.288Z,12.97
2019-05-22T06:52:07.540Z,12.88
2019-05-22T06:54:38.246Z,12.80
2019-05-22T06:57:10.190Z,12.84
2019-05-22T06:59:41.073Z,12.82
2019-05-22T07:02:13.005Z,12.88
2019-05-22T07:04:42.714Z,12.83
2019-05-22T07:07:14.150Z,12.93
2019-05-22T07:09:44.828Z,12.99
2019-05-22T07:12:15.537Z,13.08
2019-05-22T07:14:54.662Z,13.14
2019-05-22T07:17:25.400Z,13.17
2019-05-22T07:19:55.614Z,13.17
2019-05-22T07:22:25.935Z,13.08
2019-05-22T07:24:55.678Z,13.15
2019-05-22T07:27:26.870Z,13.17
2019-05-22T07:29:56.614Z,13.16
2019-05-22T07:32:30.534Z,13.12
2019-05-22T07:34:57.744Z,13.16
2019-05-22T07:37:27.297Z,13.20
2019-05-22T07:39:56.746Z,13.22
2019-05-22T07:42:26.233Z,13.19
2019-05-22T07:44:56.073Z,13.07
2019-05-22T07:47:26.276Z,13.07
2019-05-22T07:49:55.836Z,13.08
2019-05-22T07:52:25.996Z,13.14
2019-05-22T07:54:55.747Z,13.29
2019-05-22T07:57:25.753Z,13.28
2019-05-22T07:59:55.564Z,13.24
2019-05-22T08:02:26.481Z,13.29
2019-05-22T08:04:55.963Z,13.33
2019-05-22T08:07:27.239Z,13.27
2019-05-22T08:09:56.778Z,13.19
2019-05-22T08:12:26.782Z,13.20
2019-05-22T08:14:56.270Z,13.22
2019-05-22T08:17:27.068Z,13.33
2019-05-22T08:19:56.903Z,13.27
2019-05-22T08:22:26.541Z,13.24
2019-05-22T08:24:56.082Z,13.24
2019-05-22T08:27:26.009Z,13.27
2019-05-22T08:29:57.155Z,13.31
2019-05-22T08:32:26.643Z,13.34
2019-05-22T08:34:56.384Z,13.40
2019-05-22T08:37:29.445Z,13.36
2019-05-22T08:40:00.073Z,13.24
2019-05-22T08:42:30.960Z,13.21
2019-05-22T08:45:01.556Z,13.14
2019-05-22T08:47:31.292Z,13.17
2019-05-22T08:50:01.289Z,13.14
2019-05-22T08:52:31.383Z,13.08
2019-05-22T08:55:01.388Z,12.94
2019-05-22T08:57:31.591Z,12.91
2019-05-22T09:00:01.061Z,12.83
2019-05-22T09:02:30.511Z,12.81
2019-05-22T09:05:00.345Z,12.75
2019-05-22T09:07:30.988Z,12.54
2019-05-22T09:10:00.453Z,12.50
2019-05-22T09:12:30.473Z,12.51
2019-05-22T09:15:00.105Z,12.43
2019-05-22T09:17:29.937Z,12.28
2019-05-22T09:19:59.478Z,12.19
2019-05-22T09:22:39.950Z,12.12
2019-05-22T09:25:00.954Z,12.05
2019-05-22T09:27:30.642Z,11.99
2019-05-22T09:30:00.444Z,11.98
2019-05-22T09:32:29.897Z,12.10
2019-05-22T09:34:59.359Z,12.09
2019-05-22T09:37:29.008Z,12.13
2019-05-22T09:39:58.503Z,12.06
2019-05-22T09:42:28.935Z,12.04
2019-05-22T09:44:58.700Z,12.10
2019-05-22T09:47:28.432Z,12.06
2019-05-22T09:49:58.319Z,12.14
2019-05-22T09:52:28.134Z,12.11
2019-05-22T09:54:57.612Z,12.11
2019-05-22T09:57:29.353Z,12.03
2019-05-22T09:59:58.825Z,12.16
2019-05-22T10:02:30.582Z,12.15
2019-05-22T10:05:00.029Z,12.06
2019-05-22T10:07:30.098Z,12.13
2019-05-22T10:09:59.636Z,12.14
2019-05-22T10:12:29.551Z,12.11
2019-05-22T10:14:59.311Z,12.15
2019-05-22T10:17:28.802Z,12.12
2019-05-22T10:19:58.872Z,12.18
2019-05-22T10:22:33.467Z,11.97
2019-05-22T10:25:14.639Z,12.08
2019-05-22T10:27:35.474Z,12.07
2019-05-22T10:30:13.763Z,12.06
2019-05-22T10:32:43.591Z,12.09
2019-05-22T10:35:13.572Z,12.16
2019-05-22T10:37:43.203Z,12.12
2019-05-22T10:40:13.976Z,12.23
2019-05-22T10:42:45.148Z,12.16
2019-05-22T10:45:15.230Z,12.11
2019-05-22T10:47:45.140Z,12.12
2019-05-22T10:50:15.097Z,12.10
2019-05-22T10:52:44.737Z,12.11
2019-05-22T10:55:14.458Z,12.09
2019-05-22T10:57:44.896Z,12.10
2019-05-22T11:00:15.976Z,12.03
2019-05-22T11:02:46.062Z,12.07
2019-05-22T11:05:16.763Z,12.08
2019-05-22T11:07:46.655Z,12.07
2019-05-22T11:10:18.059Z,12.00
2019-05-22T11:12:47.745Z,11.95
2019-05-22T11:15:17.481Z,11.86
2019-05-22T11:17:47.152Z,11.88
2019-05-22T11:20:17.714Z,11.92
2019-05-22T11:22:47.558Z,11.91
2019-05-22T11:25:17.633Z,11.99
2019-05-22T11:27:47.188Z,11.92
2019-05-22T11:30:18.479Z,11.88
2019-05-22T11:32:48.804Z,11.93
2019-05-22T11:35:19.883Z,12.13
2019-05-22T11:37:49.362Z,12.12
2019-05-22T11:40:20.269Z,12.17
2019-05-22T11:42:51.854Z,12.21
2019-05-22T11:45:22.327Z,12.20
2019-05-22T11:47:52.260Z,12.23
2019-05-22T11:50:22.314Z,12.43
2019-05-22T11:52:51.765Z,12.52
2019-05-22T11:55:21.311Z,12.57
2019-05-22T11:57:51.819Z,12.66
2019-05-22T12:00:23.170Z,12.69
2019-05-22T12:02:53.285Z,12.60
2019-05-22T12:05:22.923Z,12.67
2019-05-22T12:07:52.650Z,12.57
2019-05-22T12:10:23.238Z,12.49
2019-05-22T12:12:53.425Z,12.49
2019-05-22T12:15:25.018Z,12.49
2019-05-22T12:17:54.906Z,12.67
2019-05-22T12:20:26.105Z,12.66
2019-05-22T12:22:56.821Z,12.80
2019-05-22T12:25:26.432Z,12.82
2019-05-22T12:27:56.659Z,12.84
2019-05-22T12:30:26.131Z,12.86
2019-05-22T12:32:56.331Z,12.81
2019-05-22T12:35:26.566Z,12.87
2019-05-22T12:37:57.269Z,12.92
2019-05-22T12:40:29.813Z,12.91
2019-05-22T12:43:00.153Z,12.88
2019-05-22T12:45:31.132Z,12.90
2019-05-22T12:48:01.466Z,12.76
2019-05-22T12:50:31.589Z,12.70
2019-05-22T12:53:03.366Z,12.69
2019-05-22T12:55:33.072Z,12.68
2019-05-22T12:58:03.493Z,12.55
2019-05-22T13:00:34.803Z,12.48
2019-05-22T13:03:04.862Z,12.46
2019-05-22T13:05:36.124Z,12.52
2019-05-22T13:08:05.748Z,12.50
2019-05-22T13:10:36.108Z,12.36
2019-05-22T13:13:05.632Z,12.36
2019-05-22T13:15:36.736Z,12.33
2019-05-22T13:18:07.228Z,12.38
2019-05-22T13:20:43.552Z,12.31
2019-05-22T13:23:12.586Z,12.18
2019-05-22T13:25:46.804Z,12.26
2019-05-22T13:28:17.691Z,12.27
2019-05-22T13:30:51.976Z,12.23
2019-05-22T13:33:24.667Z,12.39
2019-05-22T13:35:56.297Z,12.33
2019-05-22T13:38:25.933Z,12.22
2019-05-22T13:40:56.157Z,12.25
2019-05-22T13:43:27.051Z,12.20
2019-05-22T13:45:56.880Z,12.20
2019-05-22T13:48:26.607Z,12.16
2019-05-22T13:50:57.123Z,12.22
2019-05-22T13:53:27.799Z,12.23
2019-05-22T13:55:58.059Z,12.20
2019-05-22T13:58:28.283Z,12.14
2019-05-22T14:00:58.151Z,12.14
2019-05-22T14:03:27.818Z,12.15
2019-05-22T14:05:58.133Z,12.10
2019-05-22T14:08:27.596Z,12.07
2019-05-22T14:10:57.660Z,12.12
2019-05-22T14:13:27.799Z,12.14
2019-05-22T14:15:57.928Z,12.04
2019-05-22T14:18:28.126Z,12.06
2019-05-22T14:20:57.642Z,12.10
2019-05-22T14:23:27.105Z,12.07
2019-05-22T14:25:56.589Z,12.14
2019-05-22T14:28:27.295Z,12.16
2019-05-22T14:30:57.705Z,12.10
2019-05-22T14:33:28.186Z,12.16
2019-05-22T14:35:58.555Z,12.10
2019-05-22T14:38:28.478Z,12.08
2019-05-22T14:40:58.034Z,12.07
2019-05-22T14:43:27.851Z,12.03
2019-05-22T14:45:57.501Z,12.06
2019-05-22T14:48:27.029Z,12.05
2019-05-22T14:50:56.683Z,12.04
2019-05-22T14:53:27.284Z,12.03
2019-05-22T14:55:57.630Z,12.01
2019-05-22T14:58:27.479Z,11.95
2019-05-22T15:00:56.912Z,11.87
2019-05-22T15:03:26.566Z,11.83
2019-05-22T15:05:56.301Z,11.88
2019-05-22T15:08:25.815Z,11.88
2019-05-22T15:10:59.242Z,11.95
2019-05-22T15:13:28.882Z,12.01
2019-05-22T15:15:58.602Z,12.01
2019-05-22T15:18:29.065Z,12.03
2019-05-22T15:21:02.505Z,11.87
2019-05-22T15:23:33.511Z,11.86
2019-05-22T15:26:03.378Z,11.88
2019-05-22T15:28:33.261Z,11.86
2019-05-22T15:31:03.098Z,11.88
2019-05-22T15:33:33.867Z,11.97
2019-05-22T15:36:06.736Z,11.94
2019-05-22T15:38:38.590Z,11.86
2019-05-22T15:41:08.588Z,11.85
2019-05-22T15:43:39.227Z,11.85
2019-05-22T15:46:10.317Z,11.84
2019-05-22T15:48:40.383Z,11.77
2019-05-22T15:51:10.023Z,11.77
2019-05-22T15:53:39.769Z,11.82
2019-05-22T15:56:09.824Z,11.82
2019-05-22T15:58:41.275Z,11.86
2019-05-22T16:01:11.092Z,11.83
2019-05-22T16:03:42.772Z,11.82
2019-05-22T16:06:13.725Z,11.82
2019-05-22T16:08:43.719Z,11.82
2019-05-22T16:11:14.727Z,11.79
2019-05-22T16:13:46.232Z,11.76
2019-05-22T16:16:16.675Z,11.77
2019-05-22T16:18:47.519Z,11.75
2019-05-22T16:21:17.918Z,11.72
2019-05-22T16:23:47.768Z,11.71
2019-05-22T16:26:17.891Z,11.74
2019-05-22T16:28:48.745Z,11.57
2019-05-22T16:31:21.489Z,11.62
2019-05-22T16:33:53.530Z,11.55
2019-05-22T16:36:24.024Z,11.59
2019-05-22T16:38:54.721Z,11.57
2019-05-22T16:41:24.694Z,11.58
2019-05-22T16:43:55.611Z,11.53
2019-05-22T16:46:25.633Z,11.52
2019-05-22T16:48:56.003Z,11.53
2019-05-22T16:51:26.408Z,11.53
2019-05-22T16:53:59.438Z,11.53
2019-05-22T16:56:29.540Z,11.47
2019-05-22T16:58:59.349Z,11.46
2019-05-22T17:01:28.984Z,11.46
2019-05-22T17:04:00.627Z,11.43
2019-05-22T17:06:30.889Z,11.38
2019-05-22T17:09:01.415Z,11.38
2019-05-22T17:11:32.453Z,11.39
2019-05-22T17:14:03.305Z,11.39
2019-05-22T17:16:34.672Z,11.43
2019-05-22T17:19:25.809Z,11.40
2019-05-22T17:21:43.291Z,11.39
2019-05-22T17:24:14.592Z,11.42
2019-05-22T17:26:44.592Z,11.44
2019-05-22T17:29:14.085Z,11.42
2019-05-22T17:31:43.758Z,11.45
2019-05-22T17:34:32.718Z,11.40
2019-05-22T17:37:08.611Z,11.36
2019-05-22T17:39:40.774Z,11.41
2019-05-22T17:42:13.159Z,11.39
2019-05-22T17:44:45.646Z,11.37
2019-05-22T17:47:17.202Z,11.33
2019-05-22T17:49:47.020Z,11.38
2019-05-22T17:52:20.361Z,11.36
2019-05-22T17:54:51.338Z,11.37
2019-05-22T17:57:22.133Z,11.31
2019-05-22T17:59:52.687Z,11.30
2019-05-22T18:02:23.880Z,11.31
2019-05-22T18:04:53.359Z,11.24
2019-05-22T18:07:23.395Z,11.23
2019-05-22T18:09:52.943Z,11.27
2019-05-22T18:12:22.421Z,11.27
2019-05-22T18:14:51.916Z,11.27
2019-05-22T18:17:21.411Z,11.27
2019-05-22T18:19:51.164Z,11.26
2019-05-22T18:22:20.866Z,11.23
2019-05-22T18:24:50.419Z,11.17
2019-05-22T18:27:25.118Z,11.24
2019-05-22T18:29:52.965Z,11.22
2019-05-22T18:32:22.977Z,11.25
2019-05-22T18:34:52.495Z,11.26
2019-05-22T18:37:22.019Z,11.22
2019-05-22T18:39:51.524Z,11.24
2019-05-22T18:42:21.344Z,11.22
2019-05-22T18:44:50.858Z,11.20
2019-05-22T18:47:20.841Z,11.20
2019-05-22T18:49:50.362Z,11.20
2019-05-22T18:52:20.482Z,11.19
2019-05-22T18:54:50.045Z,11.23
2019-05-22T18:57:20.481Z,11.24
2019-05-22T18:59:51.225Z,11.24
2019-05-22T19:02:20.867Z,11.25
2019-05-22T19:04:50.724Z,11.21
2019-05-22T19:07:20.271Z,11.23
2019-05-22T19:09:49.828Z,11.27
2019-05-22T19:12:19.535Z,11.24
2019-05-22T19:14:49.645Z,11.22
2019-05-22T19:17:19.322Z,11.23
2019-05-22T19:19:49.902Z,11.21
2019-05-22T19:22:20.245Z,11.23
2019-05-22T19:24:50.005Z,11.26
2019-05-22T19:27:19.877Z,11.25
2019-05-22T19:29:49.537Z,11.22
2019-05-22T19:32:19.660Z,11.24
2019-05-22T19:34:49.234Z,11.23
2019-05-22T19:37:19.192Z,11.23
2019-05-22T19:39:48.681Z,11.27
2019-05-22T19:42:18.424Z,11.31
2019-05-22T19:44:48.099Z,11.26
2019-05-22T19:47:19.797Z,11.26
2019-05-22T19:49:49.780Z,11.23
2019-05-22T19:52:22.559Z,11.25
2019-05-22T19:54:51.246Z,11.22
2019-05-22T19:57:20.853Z,11.24
2019-05-22T19:59:50.407Z,11.22
2019-05-22T20:02:20.692Z,11.26
2019-05-22T20:04:51.346Z,11.24
2019-05-22T20:07:22.026Z,11.20
2019-05-22T20:09:51.881Z,11.20
2019-05-22T20:12:24.835Z,11.23
2019-05-22T20:14:53.159Z,11.23
2019-05-22T20:17:22.831Z,11.20
2019-05-22T20:19:53.340Z,11.18
2019-05-22T20:22:23.405Z,11.17
2019-05-22T20:24:53.567Z,11.14
2019-05-22T20:27:24.414Z,11.17
2019-05-22T20:29:54.142Z,11.20
2019-05-22T20:32:24.281Z,11.21
2019-05-22T20:34:54.067Z,11.22
2019-05-22T20:37:23.735Z,11.20
2019-05-22T20:39:53.493Z,11.19
2019-05-22T20:42:23.583Z,11.13
2019-05-22T20:44:53.538Z,11.10
2019-05-22T20:47:25.374Z,11.08
2019-05-22T20:49:55.215Z,11.04
2019-05-22T20:52:24.977Z,11.00
2019-05-22T20:54:55.927Z,11.00
2019-05-22T20:57:26.387Z,10.99
2019-05-22T20:59:56.841Z,10.97
2019-05-22T21:02:27.177Z,10.96
2019-05-22T21:04:57.548Z,11.03
2019-05-22T21:07:33.568Z,10.92
2019-05-22T21:10:03.819Z,10.91
2019-05-22T21:12:36.129Z,10.94
2019-05-22T21:15:07.449Z,10.97
2019-05-22T21:17:37.595Z,10.93
2019-05-22T21:20:10.742Z,10.93
2019-05-22T21:22:41.053Z,10.93
2019-05-22T21:25:12.097Z,10.89
2019-05-22T21:27:42.567Z,10.86
2019-05-22T21:30:12.683Z,10.87
2019-05-22T21:32:44.086Z,10.90
2019-05-22T21:35:16.405Z,10.82
2019-05-22T21:37:46.411Z,10.82
2019-05-22T21:40:16.714Z,10.85
2019-05-22T21:42:46.663Z,10.83
2019-05-22T21:45:16.402Z,10.76
2019-05-22T21:47:46.234Z,10.75
2019-05-22T21:50:16.710Z,10.78
2019-05-22T21:52:46.185Z,10.80
2019-05-22T21:55:17.922Z,10.79
2019-05-22T21:57:47.971Z,10.74
2019-05-22T22:00:40.648Z,10.71
2019-05-22T22:03:12.978Z,10.65
2019-05-22T22:05:43.493Z,10.67
2019-05-22T22:08:13.415Z,10.62
2019-05-22T22:10:43.161Z,10.62
2019-05-22T22:13:13.075Z,10.67
2019-05-22T22:15:45.590Z,10.61
2019-05-22T22:18:16.008Z,10.62
2019-05-22T22:20:46.103Z,10.68
2019-05-22T22:23:16.482Z,10.65
2019-05-22T22:25:46.341Z,10.57
2019-05-22T22:28:17.642Z,10.56
2019-05-22T22:30:48.782Z,10.65
2019-05-22T22:33:20.369Z,10.72
2019-05-22T22:35:51.057Z,10.75
2019-05-22T22:38:22.046Z,10.70
2019-05-22T22:40:53.544Z,10.62
2019-05-22T22:43:24.332Z,10.59
2019-05-22T22:46:09.239Z,10.62
2019-05-22T22:48:40.458Z,10.67
2019-05-22T22:51:12.506Z,10.71
2019-05-22T22:53:43.669Z,10.69
2019-05-22T22:56:14.519Z,10.70
2019-05-22T22:58:44.680Z,10.72
2019-05-22T23:01:30.722Z,10.65
2019-05-22T23:04:01.029Z,10.67
2019-05-22T23:06:31.129Z,10.68
2019-05-22T23:09:02.024Z,10.71
2019-05-22T23:11:32.727Z,10.69
2019-05-22T23:14:03.403Z,10.61
2019-05-22T23:16:33.099Z,10.59
2019-05-22T23:19:15.761Z,10.60
2019-05-22T23:21:45.493Z,10.63
2019-05-22T23:24:16.659Z,10.68
2019-05-22T23:26:46.139Z,10.66
2019-05-22T23:29:17.673Z,10.65
2019-05-22T23:31:48.488Z,10.70
2019-05-22T23:34:18.882Z,10.70
2019-05-22T23:36:48.612Z,10.72
2019-05-22T23:39:18.753Z,10.73
2019-05-22T23:41:49.084Z,10.72
2019-05-22T23:44:21.508Z,10.77
2019-05-22T23:46:51.421Z,10.80
2019-05-22T23:49:20.884Z,10.77
2019-05-22T23:51:50.406Z,10.75
2019-05-22T23:54:19.881Z,10.67
2019-05-22T23:56:49.630Z,10.61
2019-05-22T23:59:19.590Z,10.61
